createdAt,value
2023-01-17T00:00:50.318Z,8.98
2023-01-17T00:04:13.056Z,15.00
2023-01-17T00:07:37.658Z,10.43
2023-01-17T00:10:42.533Z,5.70
2023-01-17T00:13:46.711Z,5.85
2023-01-17T00:16:51.033Z,7.83
2023-01-17T00:20:14.903Z,7.67
2023-01-17T00:23:39.541Z,11.80
2023-01-17T00:27:02.661Z,8.10
2023-01-17T00:30:07.775Z,10.20
2023-01-17T00:33:12.894Z,8.82
2023-01-17T00:36:17.240Z,12.95
2023-01-17T00:39:21.499Z,6.80
2023-01-17T00:42:25.757Z,11.77
2023-01-17T00:45:48.793Z,4.03
2023-01-17T00:49:12.149Z,6.60
2023-01-17T00:52:35.283Z,8.20
2023-01-17T00:55:58.321Z,7.85
2023-01-17T00:59:21.339Z,10.85
2023-01-17T01:02:45.585Z,13.23
2023-01-17T01:06:08.599Z,5.43
2023-01-17T01:09:31.765Z,10.35
2023-01-17T01:12:54.715Z,14.00
2023-01-17T01:16:22.393Z,14.25
2023-01-17T01:19:45.457Z,11.65
2023-01-17T01:23:08.377Z,12.63
2023-01-17T01:26:31.250Z,7.55
2023-01-17T01:29:54.370Z,8.32
2023-01-17T01:33:17.248Z,10.30
2023-01-17T01:36:21.328Z,13.15
2023-01-17T01:39:25.585Z,6.82
2023-01-17T01:42:30.197Z,8.05
2023-01-17T01:45:34.840Z,11.18
2023-01-17T01:48:48.077Z,11.77
2023-01-17T01:51:56.994Z,9.10
2023-01-17T01:55:07.274Z,8.02
2023-01-17T01:58:27.478Z,10.80
2023-01-17T02:01:32.272Z,8.73
2023-01-17T02:04:37.457Z,10.75
2023-01-17T02:07:50.366Z,7.55
2023-01-17T02:10:56.385Z,10.13
2023-01-17T02:14:01.148Z,13.23
2023-01-17T02:17:23.697Z,12.52
2023-01-17T02:21:06.994Z,16.60
2023-01-17T02:24:20.324Z,13.68
2023-01-17T02:27:27.789Z,17.10
2023-01-17T02:30:34.239Z,10.93
2023-01-17T02:33:52.248Z,11.38
2023-01-17T02:37:06.763Z,14.63
2023-01-17T02:40:21.164Z,15.03
2023-01-17T02:43:26.810Z,11.17
2023-01-17T02:49:35.962Z,10.68
2023-01-17T02:53:18.342Z,12.27
2023-01-17T02:56:44.566Z,15.95
2023-01-17T02:59:58.208Z,12.23
2023-01-17T03:03:15.547Z,10.23
2023-01-17T03:06:39.319Z,12.55
2023-01-17T03:09:46.505Z,16.65
2023-01-17T03:12:56.549Z,13.63
2023-01-17T03:16:01.695Z,13.30
2023-01-17T03:22:10.100Z,9.90
2023-01-17T03:25:14.556Z,9.93
2023-01-17T03:28:18.918Z,11.45
2023-01-17T03:31:23.363Z,9.23
2023-01-17T03:34:27.801Z,12.55
2023-01-17T03:37:32.059Z,10.50
2023-01-17T03:40:36.359Z,9.30
2023-01-17T03:43:40.782Z,15.67
2023-01-17T03:46:44.961Z,9.63
2023-01-17T03:49:49.422Z,12.85
2023-01-17T03:52:53.769Z,11.27
2023-01-17T03:55:57.981Z,13.03
2023-01-17T03:59:02.583Z,10.13
2023-01-17T04:02:06.994Z,13.30
2023-01-17T04:05:12.075Z,14.68
2023-01-17T04:08:16.582Z,12.00
2023-01-17T04:11:21.251Z,7.55
2023-01-17T04:14:25.593Z,11.82
2023-01-17T04:17:30.276Z,10.15
2023-01-17T04:20:37.637Z,14.40
2023-01-17T04:23:41.767Z,11.55
2023-01-17T04:26:46.200Z,12.32
2023-01-17T04:29:50.784Z,20.88
2023-01-17T04:32:55.773Z,12.55
2023-01-17T04:36:00.429Z,14.10
2023-01-17T04:39:04.979Z,13.25
2023-01-17T04:42:09.609Z,14.68
2023-01-17T04:45:15.095Z,14.73
2023-01-17T04:48:19.488Z,15.85
2023-01-17T04:51:23.747Z,18.93
2023-01-17T04:54:28.648Z,18.00
2023-01-17T04:57:33.177Z,17.60
2023-01-17T05:00:37.460Z,15.93
2023-01-17T05:03:42.040Z,15.02
2023-01-17T05:06:46.653Z,16.13
2023-01-17T05:09:51.178Z,23.63
2023-01-17T05:12:56.925Z,18.35
2023-01-17T05:16:01.614Z,16.05
2023-01-17T05:19:06.175Z,17.08
2023-01-17T05:22:17.298Z,18.13
2023-01-17T05:25:24.038Z,14.85
2023-01-17T05:28:28.855Z,18.38
2023-01-17T05:31:33.367Z,16.27
2023-01-17T05:34:37.712Z,21.10
2023-01-17T05:37:48.963Z,15.95
2023-01-17T05:40:53.495Z,17.50
2023-01-17T05:43:57.910Z,16.40
2023-01-17T05:47:02.492Z,21.15
2023-01-17T05:50:07.400Z,16.52
2023-01-17T05:53:14.885Z,13.43
2023-01-17T05:56:19.552Z,16.92
2023-01-17T05:59:36.529Z,16.83
2023-01-17T06:02:42.036Z,17.13
2023-01-17T06:05:47.438Z,18.90
2023-01-17T06:11:55.891Z,16.83
2023-01-17T06:15:00.336Z,14.27
2023-01-17T06:18:09.275Z,21.98
2023-01-17T06:21:13.607Z,21.77
2023-01-17T06:24:17.879Z,22.70
2023-01-17T06:27:22.338Z,16.90
2023-01-17T06:30:27.018Z,15.68
2023-01-17T06:33:32.387Z,13.60
2023-01-17T06:36:36.851Z,15.00
2023-01-17T06:39:41.211Z,19.77
2023-01-17T06:42:45.767Z,13.65
2023-01-17T06:45:51.396Z,23.77
2023-01-17T06:48:56.106Z,19.00
2023-01-17T06:52:00.432Z,21.80
2023-01-17T06:55:05.227Z,18.95
2023-01-17T06:58:10.313Z,19.25
2023-01-17T07:01:14.660Z,19.25
2023-01-17T07:04:19.511Z,16.90
2023-01-17T07:07:24.828Z,23.02
2023-01-17T07:13:36.411Z,21.25
2023-01-17T07:16:45.251Z,19.35
2023-01-17T07:19:49.608Z,20.85
2023-01-17T07:22:53.920Z,19.43
2023-01-17T07:26:00.470Z,15.23
2023-01-17T07:29:05.397Z,19.95
2023-01-17T07:32:10.933Z,16.70
2023-01-17T07:35:15.425Z,20.85
2023-01-17T07:38:20.476Z,22.10
2023-01-17T07:44:29.343Z,20.27
2023-01-17T07:47:34.121Z,22.70
2023-01-17T07:50:39.339Z,16.77
2023-01-17T07:53:43.917Z,17.80
2023-01-17T07:56:48.071Z,17.60
2023-01-17T07:59:52.609Z,17.33
2023-01-17T08:02:58.089Z,16.83
2023-01-17T08:06:03.206Z,15.27
2023-01-17T08:09:07.540Z,18.15
2023-01-17T08:12:11.976Z,17.50
2023-01-17T08:15:17.659Z,24.13
2023-01-17T08:18:21.881Z,17.75
2023-01-17T08:21:26.518Z,20.63
2023-01-17T08:24:31.279Z,13.98
2023-01-17T08:27:36.427Z,12.25
2023-01-17T08:33:45.527Z,14.43
2023-01-17T08:36:52.828Z,18.47
2023-01-17T08:39:57.380Z,13.93
2023-01-17T08:43:01.943Z,18.03
2023-01-17T08:46:06.496Z,18.47
2023-01-17T08:49:11.924Z,21.23
2023-01-17T08:52:15.982Z,18.50
2023-01-17T08:55:20.517Z,17.65
2023-01-17T08:58:24.808Z,18.63
2023-01-17T09:01:29.441Z,18.58
2023-01-17T09:04:33.899Z,20.13
2023-01-17T09:07:37.876Z,24.10
2023-01-17T09:10:42.255Z,17.40
2023-01-17T09:13:46.891Z,20.48
2023-01-17T09:16:51.309Z,21.80
2023-01-17T09:19:56.099Z,19.08
2023-01-17T09:23:03.488Z,18.23
2023-01-17T09:26:10.558Z,20.45
2023-01-17T09:29:17.744Z,16.83
2023-01-17T09:32:22.130Z,11.35
2023-01-17T09:35:26.517Z,7.30
2023-01-17T09:38:32.530Z,8.38
2023-01-17T09:42:01.862Z,8.07
2023-01-17T09:45:16.413Z,6.75
2023-01-17T09:48:39.771Z,12.77
2023-01-17T09:51:44.856Z,4.85
2023-01-17T09:54:50.526Z,5.00
2023-01-17T09:58:11.209Z,4.72
2023-01-17T10:01:24.779Z,5.03
2023-01-17T10:04:51.348Z,7.93
2023-01-17T10:08:14.456Z,5.55
2023-01-17T10:11:53.327Z,5.38
2023-01-17T10:15:03.625Z,4.25
2023-01-17T10:18:32.139Z,4.97
2023-01-17T10:21:55.012Z,5.85
2023-01-17T10:25:26.919Z,6.63
2023-01-17T10:28:37.697Z,5.43
2023-01-17T10:32:06.099Z,4.60
2023-01-17T10:35:22.291Z,6.32
2023-01-17T10:38:36.014Z,8.45
2023-01-17T10:41:44.869Z,5.75
2023-01-17T10:45:01.296Z,6.60
2023-01-17T10:48:17.011Z,7.35
2023-01-17T10:55:32.522Z,6.95
2023-01-17T10:58:37.115Z,6.35
2023-01-17T11:01:41.718Z,5.45
2023-01-17T11:04:51.029Z,6.85
2023-01-17T11:08:01.067Z,6.43
2023-01-17T11:11:05.315Z,14.88
2023-01-17T11:14:22.122Z,6.10
2023-01-17T11:17:28.150Z,8.50
2023-01-17T11:20:39.430Z,5.50
2023-01-17T11:23:49.524Z,5.35
2023-01-17T11:26:54.334Z,4.68
2023-01-17T11:30:18.669Z,7.65
2023-01-17T11:33:53.941Z,3.67
2023-01-17T11:37:19.239Z,4.33
2023-01-17T11:40:30.332Z,6.57
2023-01-17T11:43:51.970Z,5.03
2023-01-17T11:47:18.913Z,4.90
2023-01-17T11:50:25.084Z,7.78
2023-01-17T11:53:33.611Z,4.95
2023-01-17T11:56:38.221Z,4.65
2023-01-17T11:59:47.649Z,4.32
2023-01-17T12:03:15.152Z,6.45
2023-01-17T12:06:44.733Z,7.13
2023-01-17T12:10:18.815Z,3.20
2023-01-17T12:13:49.425Z,3.25
2023-01-17T12:17:16.893Z,4.38
2023-01-17T12:20:30.507Z,4.15
2023-01-17T12:23:51.278Z,5.03
2023-01-17T12:27:06.842Z,3.50
2023-01-17T12:30:33.462Z,3.30
2023-01-17T12:33:50.263Z,4.78
2023-01-17T12:37:23.911Z,2.13
2023-01-17T12:40:39.599Z,4.85
2023-01-17T12:43:44.729Z,2.15
2023-01-17T12:47:02.761Z,1.63
2023-01-17T12:50:23.211Z,2.25
2023-01-17T12:53:48.898Z,3.55
2023-01-17T12:57:04.455Z,2.53
2023-01-17T13:00:12.458Z,4.47
2023-01-17T13:04:07.451Z,3.00
2023-01-17T13:07:20.254Z,1.23
2023-01-17T13:10:51.233Z,4.72
2023-01-17T13:13:57.867Z,2.38
2023-01-17T13:17:25.246Z,3.05
2023-01-17T13:20:56.610Z,1.20
2023-01-17T13:24:27.505Z,2.67
2023-01-17T13:27:35.057Z,5.03
2023-01-17T13:30:43.520Z,0.60
2023-01-17T13:34:05.818Z,1.17
2023-01-17T13:37:34.245Z,1.40
2023-01-17T13:41:02.641Z,0.73
2023-01-17T13:44:22.298Z,0.65
2023-01-17T13:47:31.398Z,5.15
2023-01-17T13:50:38.725Z,0.60
2023-01-17T13:53:43.214Z,2.28
2023-01-17T13:56:47.716Z,1.47
2023-01-17T13:59:53.440Z,4.23
2023-01-17T14:02:57.784Z,0.57
2023-01-17T14:06:02.113Z,1.27
2023-01-17T14:09:18.835Z,1.08
2023-01-17T14:12:27.093Z,2.17
2023-01-17T14:15:35.335Z,3.67
2023-01-17T14:18:42.383Z,4.03
2023-01-17T14:21:46.843Z,0.65
2023-01-17T14:25:12.310Z,1.20
2023-01-17T14:31:49.236Z,1.20
2023-01-17T14:34:54.152Z,3.08
2023-01-17T14:38:01.766Z,3.90
2023-01-17T14:41:29.998Z,4.38
2023-01-17T14:44:34.466Z,8.75
2023-01-17T14:47:40.101Z,5.70
2023-01-17T14:50:46.144Z,9.18
2023-01-17T14:53:59.226Z,6.78
2023-01-17T14:57:27.145Z,1.52
2023-01-17T15:00:34.920Z,2.38
2023-01-17T15:03:47.093Z,2.75
2023-01-17T15:06:52.758Z,1.98
2023-01-17T15:09:57.215Z,4.10
2023-01-17T15:13:08.955Z,5.43
2023-01-17T15:16:28.140Z,7.93
2023-01-17T15:19:44.004Z,5.50
2023-01-17T15:22:51.317Z,8.25
2023-01-17T15:25:58.489Z,2.08
2023-01-17T15:29:11.348Z,13.88
2023-01-17T15:32:34.069Z,6.70
2023-01-17T15:35:39.002Z,4.60
2023-01-17T15:39:01.719Z,7.45
2023-01-17T15:42:21.080Z,7.45
2023-01-17T15:45:31.522Z,8.50
2023-01-17T15:48:43.331Z,6.88
2023-01-17T15:51:47.823Z,8.57
2023-01-17T15:58:22.780Z,6.38
2023-01-17T16:01:29.067Z,13.23
2023-01-17T16:04:37.232Z,6.85
2023-01-17T16:07:41.643Z,6.63
2023-01-17T16:10:45.864Z,5.95
2023-01-17T16:13:52.532Z,8.63
2023-01-17T16:16:56.874Z,5.35
2023-01-17T16:20:01.606Z,4.32
2023-01-17T16:23:06.274Z,7.95
2023-01-17T16:26:10.906Z,6.53
2023-01-17T16:29:15.187Z,6.10
2023-01-17T16:32:22.762Z,10.35
2023-01-17T16:35:30.835Z,10.20
2023-01-17T16:38:36.933Z,2.78
2023-01-17T16:41:41.455Z,5.35
2023-01-17T16:44:46.208Z,12.25
2023-01-17T16:47:52.677Z,11.00
2023-01-17T16:50:57.637Z,7.68
2023-01-17T16:54:02.509Z,4.30
2023-01-17T16:57:07.070Z,6.57
2023-01-17T17:00:12.413Z,5.22
2023-01-17T17:03:20.899Z,7.82
2023-01-17T17:06:25.742Z,5.53
2023-01-17T17:09:30.460Z,4.90
2023-01-17T17:12:34.970Z,8.43
2023-01-17T17:15:46.157Z,12.02
2023-01-17T17:18:59.438Z,9.13
2023-01-17T17:22:06.419Z,5.13
2023-01-17T17:25:15.882Z,5.50
2023-01-17T17:28:20.475Z,6.93
2023-01-17T17:31:24.828Z,13.30
2023-01-17T17:34:30.763Z,9.07
2023-01-17T17:37:35.695Z,6.55
2023-01-17T17:40:40.355Z,7.55
2023-01-17T17:43:44.921Z,5.68
2023-01-17T17:46:51.291Z,4.27
2023-01-17T17:49:56.326Z,9.60
2023-01-17T17:53:00.975Z,6.05
2023-01-17T17:56:06.818Z,10.57
2023-01-17T17:59:12.523Z,6.28
2023-01-17T18:02:17.008Z,9.25
2023-01-17T18:05:21.214Z,5.03
2023-01-17T18:08:25.727Z,7.23
2023-01-17T18:11:30.447Z,8.70
2023-01-17T18:14:34.855Z,8.07
2023-01-17T18:17:39.304Z,7.20
2023-01-17T18:20:43.525Z,13.13
2023-01-17T18:23:48.167Z,7.40
2023-01-17T18:26:56.013Z,9.63
2023-01-17T18:30:00.655Z,5.75
2023-01-17T18:33:05.004Z,5.30
2023-01-17T18:36:12.281Z,9.80
2023-01-17T18:39:25.588Z,5.18
2023-01-17T18:42:31.055Z,7.57
2023-01-17T18:45:35.724Z,5.30
2023-01-17T18:48:41.407Z,4.83
2023-01-17T18:51:48.984Z,7.35
2023-01-17T18:54:53.461Z,5.55
2023-01-17T18:57:57.637Z,6.25
2023-01-17T19:01:18.766Z,1.60
2023-01-17T19:04:24.684Z,10.23
2023-01-17T19:07:30.907Z,5.03
2023-01-17T19:10:34.820Z,3.38
2023-01-17T19:13:41.783Z,3.67
2023-01-17T19:16:46.082Z,3.78
2023-01-17T19:19:50.341Z,7.10
2023-01-17T19:22:54.658Z,3.17
2023-01-17T19:25:59.166Z,5.90
2023-01-17T19:29:05.128Z,5.90
2023-01-17T19:32:09.642Z,4.15
2023-01-17T19:35:14.394Z,6.95
2023-01-17T19:38:18.893Z,7.28
2023-01-17T19:41:26.652Z,5.03
2023-01-17T19:44:30.748Z,6.68
2023-01-17T19:47:37.346Z,2.95
2023-01-17T19:50:41.815Z,2.75
2023-01-17T19:53:46.745Z,5.65
2023-01-17T19:56:51.418Z,3.20
2023-01-17T19:59:55.899Z,1.52
2023-01-17T20:03:00.391Z,5.13
2023-01-17T20:06:07.043Z,5.90
2023-01-17T20:09:12.554Z,3.60
2023-01-17T20:12:17.197Z,8.77
2023-01-17T20:15:23.885Z,12.68
2023-01-17T20:18:28.355Z,7.35
2023-01-17T20:21:32.792Z,8.32
2023-01-17T20:24:37.597Z,10.10
2023-01-17T20:27:42.779Z,10.55
2023-01-17T20:30:47.734Z,4.82
2023-01-17T20:33:54.393Z,5.93
2023-01-17T20:36:59.393Z,4.70
2023-01-17T20:40:04.485Z,2.70
2023-01-17T20:46:16.242Z,9.73
2023-01-17T20:49:21.825Z,9.57
2023-01-17T20:52:26.319Z,12.93
2023-01-17T20:55:30.647Z,4.80
2023-01-17T20:58:35.576Z,6.45
2023-01-17T21:01:40.006Z,3.90
2023-01-17T21:04:45.348Z,6.93
2023-01-17T21:07:49.813Z,11.57
2023-01-17T21:10:54.211Z,6.57
2023-01-17T21:13:58.575Z,3.20
2023-01-17T21:17:03.241Z,5.43
2023-01-17T21:20:08.380Z,5.20
2023-01-17T21:23:18.460Z,8.15
2023-01-17T21:26:25.610Z,3.97
2023-01-17T21:29:32.051Z,1.45
2023-01-17T21:32:36.494Z,3.22
2023-01-17T21:35:40.894Z,4.07
2023-01-17T21:38:57.242Z,4.10
2023-01-17T21:42:01.541Z,8.07
2023-01-17T21:45:06.295Z,5.77
2023-01-17T21:48:14.600Z,5.03
2023-01-17T21:51:22.551Z,4.93
2023-01-17T21:54:47.191Z,2.95
2023-01-17T21:58:09.920Z,4.68
2023-01-17T22:01:18.455Z,3.53
2023-01-17T22:04:22.714Z,8.20
2023-01-17T22:07:27.213Z,8.77
2023-01-17T22:10:31.711Z,2.03
2023-01-17T22:13:37.360Z,5.93
2023-01-17T22:16:42.011Z,4.32
2023-01-17T22:19:46.536Z,3.43
2023-01-17T22:22:50.958Z,4.28
2023-01-17T22:26:02.028Z,7.50
2023-01-17T22:29:06.651Z,4.97
2023-01-17T22:32:11.134Z,9.60
2023-01-17T22:35:15.620Z,5.90
2023-01-17T22:38:19.923Z,8.52
2023-01-17T22:41:27.866Z,9.23
2023-01-17T22:44:31.697Z,3.92
2023-01-17T22:47:36.865Z,10.33
2023-01-17T22:53:50.024Z,9.80
2023-01-17T22:56:54.637Z,6.60
2023-01-17T22:59:59.096Z,8.70
2023-01-17T23:03:06.198Z,6.70
2023-01-17T23:06:19.492Z,6.32
2023-01-17T23:09:23.892Z,7.70
2023-01-17T23:12:28.391Z,9.77
2023-01-17T23:15:55.228Z,9.43
2023-01-17T23:19:18.402Z,7.72
2023-01-17T23:22:26.713Z,6.72
2023-01-17T23:25:31.449Z,5.38
2023-01-17T23:28:35.855Z,8.43
2023-01-17T23:31:40.122Z,8.52
2023-01-17T23:34:44.219Z,5.95
2023-01-17T23:38:07.418Z,11.63
2023-01-17T23:41:30.212Z,10.77
2023-01-17T23:44:34.703Z,10.10
2023-01-17T23:47:39.153Z,7.70
2023-01-17T23:50:46.211Z,11.07
2023-01-17T23:53:55.109Z,6.65
2023-01-17T23:56:59.771Z,9.70
